Time;durP1;ratioP1;P1;durP2;ratioP2;P2;SDS_P1;SDS_P2;PMS_P1;PMS_P2;Temp;Humidity;BMP_temperature;BMP_pressure;BME280_temperature;BME280_humidity;BME280_pressure;Samples;Min_cycle;Max_cycle;Signal;HPM_P1;HPM_P2
2024/01/02 00:01:10;;;;;;;4.27;1.67;;;3.80;39.70;;;;;;5038377;28;46583;-78
2024/01/02 00:03:36;;;;;;;3.57;1.70;;;3.80;39.50;;;;;;5020258;28;46527;-77
2024/01/02 00:06:01;;;;;;;2.87;1.60;;;3.80;39.60;;;;;;5021553;28;46639;-79
2024/01/02 00:08:27;;;;;;;3.40;1.47;;;3.80;39.60;;;;;;5040392;28;46923;-79
2024/01/02 00:10:52;;;;;;;6.57;1.60;;;3.80;39.60;;;;;;5021065;28;46867;-78
2024/01/02 00:13:18;;;;;;;8.10;1.73;;;3.80;39.70;;;;;;5021661;28;46549;-78
2024/01/02 00:15:44;;;;;;;1.70;1.13;;;3.80;39.70;;;;;;5037281;28;46506;-76
2024/01/02 00:18:09;;;;;;;2.27;1.23;;;3.80;39.50;;;;;;5038032;28;46466;-77
2024/01/02 00:20:35;;;;;;;2.10;1.20;;;3.90;39.60;;;;;;5037709;28;46911;-77
2024/01/02 00:23:01;;;;;;;9.80;1.53;;;3.80;39.40;;;;;;5038140;28;46796;-78
2024/01/02 00:25:26;;;;;;;3.50;1.13;;;3.90;39.40;;;;;;5037532;28;46420;-78
2024/01/02 00:27:52;;;;;;;3.10;1.20;;;3.90;39.10;;;;;;5036840;28;46483;-79
2024/01/02 00:30:17;;;;;;;7.23;1.20;;;3.90;39.00;;;;;;5035434;28;46391;-77
2024/01/02 00:32:43;;;;;;;7.70;1.10;;;3.90;38.90;;;;;;5037184;28;46717;-77
2024/01/02 00:35:09;;;;;;;1.77;0.97;;;3.90;38.80;;;;;;5036824;28;46619;-77
2024/01/02 00:37:35;;;;;;;6.83;1.77;;;4.00;38.70;;;;;;5038406;28;46341;-77
2024/01/02 00:40:00;;;;;;;2.10;1.00;;;4.10;38.60;;;;;;5038440;28;46774;-78
2024/01/02 00:42:26;;;;;;;2.07;0.83;;;4.20;38.50;;;;;;5038553;28;46458;-76
2024/01/02 00:44:52;;;;;;;2.47;0.80;;;4.10;38.30;;;;;;5037242;28;46930;-79
2024/01/02 00:47:21;;;;;;;3.03;0.77;;;4.10;38.20;;;;;;5037777;28;47145;-78
2024/01/02 00:49:48;;;;;;;2.17;0.95;;;4.20;38.20;;;;;;5035114;28;46856;-79
2024/01/02 00:52:13;;;;;;;3.25;1.10;;;4.20;38.10;;;;;;5036873;28;46510;-77
2024/01/02 00:54:39;;;;;;;2.00;0.90;;;4.30;38.10;;;;;;5035433;28;46918;-78
2024/01/02 00:57:04;;;;;;;2.73;0.80;;;4.30;38.00;;;;;;5018515;28;48293;-79
2024/01/02 00:59:30;;;;;;;3.77;1.10;;;4.30;37.90;;;;;;5045569;28;46506;-80
2024/01/02 01:01:56;;;;;;;2.67;0.90;;;4.30;38.00;;;;;;5033543;28;46884;-78
2024/01/02 01:04:23;;;;;;;2.20;0.90;;;4.20;38.10;;;;;;5036666;28;45958;-80
2024/01/02 01:06:48;;;;;;;4.00;1.47;;;4.20;38.30;;;;;;5024511;28;47903;-79
2024/01/02 01:09:14;;;;;;;2.80;1.07;;;4.20;38.30;;;;;;5020712;28;46541;-80
2024/01/02 01:11:39;;;;;;;3.80;1.00;;;4.20;38.40;;;;;;5021372;28;46804;-78
2024/01/02 01:14:05;;;;;;;3.90;0.80;;;4.10;38.40;;;;;;5038966;28;46775;-79
2024/01/02 01:16:31;;;;;;;4.90;1.10;;;4.20;38.30;;;;;;5038796;28;46443;-79
2024/01/02 01:18:56;;;;;;;5.87;1.20;;;4.20;38.20;;;;;;5038914;28;46785;-79
2024/01/02 01:21:22;;;;;;;3.63;1.13;;;4.20;38.30;;;;;;5041084;28;46623;-78
2024/01/02 01:23:48;;;;;;;2.97;0.80;;;4.20;38.30;;;;;;5041012;28;46601;-78
2024/01/02 01:26:13;;;;;;;6.40;0.90;;;4.20;38.30;;;;;;5021757;28;48007;-79
2024/01/02 01:28:39;;;;;;;1.33;0.80;;;4.20;38.30;;;;;;5040692;28;45824;-78
2024/01/02 01:31:05;;;;;;;2.90;0.90;;;4.30;38.30;;;;;;5022424;28;46416;-77
2024/01/02 01:33:30;;;;;;;4.53;0.90;;;4.30;38.30;;;;;;5034016;28;46752;-78
2024/01/02 01:35:56;;;;;;;4.20;0.90;;;4.40;38.20;;;;;;5038015;28;46402;-77
2024/01/02 01:38:21;;;;;;;3.53;0.87;;;4.40;38.00;;;;;;5037955;28;46548;-77
2024/01/02 01:40:48;;;;;;;2.87;1.10;;;4.40;37.90;;;;;;5037578;28;46664;-78
2024/01/02 01:43:14;;;;;;;2.33;0.93;;;4.40;37.60;;;;;;5021717;28;46832;-75
2024/01/02 01:45:40;;;;;;;4.73;1.27;;;4.50;37.60;;;;;;5040642;28;47178;-78
2024/01/02 01:48:08;;;;;;;2.50;0.80;;;4.50;37.60;;;;;;5040253;28;45880;-78
2024/01/02 01:50:34;;;;;;;1.20;0.80;;;4.50;37.50;;;;;;5020847;28;46689;-76
2024/01/02 01:53:01;;;;;;;1.87;0.80;;;4.40;37.60;;;;;;5039589;28;46862;-77
2024/01/02 01:55:27;;;;;;;2.37;1.10;;;4.40;37.40;;;;;;5021015;28;49375;-78
2024/01/02 01:57:53;;;;;;;1.40;0.73;;;4.50;37.30;;;;;;5039590;28;46502;-78
2024/01/02 02:00:20;;;;;;;4.73;1.30;;;4.60;37.10;;;;;;5024449;28;46467;-78
2024/01/02 02:02:46;;;;;;;3.53;1.27;;;4.60;36.80;;;;;;5039266;28;46976;-79
2024/01/02 02:05:12;;;;;;;5.17;1.10;;;4.60;37.70;;;;;;5039268;28;47177;-77
2024/01/02 02:07:40;;;;;;;4.17;0.93;;;4.70;36.50;;;;;;5036297;28;46467;-78
2024/01/02 02:10:10;;;;;;;5.33;0.90;;;4.70;36.20;;;;;;5039733;28;46450;-78
2024/01/02 02:12:36;;;;;;;4.00;0.90;;;4.70;36.10;;;;;;5023337;28;46976;-78
2024/01/02 02:15:03;;;;;;;2.90;0.77;;;4.80;36.10;;;;;;5038986;28;46532;-79
2024/01/02 02:17:29;;;;;;;3.00;0.90;;;4.80;36.10;;;;;;5039381;28;46429;-78
2024/01/02 02:19:58;;;;;;;2.00;0.90;;;4.80;36.10;;;;;;5039787;28;46548;-76
2024/01/02 02:22:33;;;;;;;3.33;0.80;;;5.00;36.40;;;;;;5040105;28;46982;-77
2024/01/02 02:24:59;;;;;;;1.50;0.80;;;4.90;36.40;;;;;;5038791;28;46836;-78
2024/01/02 02:27:26;;;;;;;4.20;1.30;;;4.80;36.30;;;;;;5039120;28;46455;-77
2024/01/02 02:29:52;;;;;;;5.60;1.07;;;4.80;36.30;;;;;;5039143;28;46474;-78
2024/01/02 02:32:19;;;;;;;5.80;1.13;;;4.80;36.10;;;;;;4981603;28;1143521;-78
2024/01/02 02:34:45;;;;;;;1.40;0.73;;;4.90;35.90;;;;;;5039251;28;49431;-76
2024/01/02 02:37:10;;;;;;;2.77;0.80;;;5.00;35.60;;;;;;5040438;28;46784;-78
2024/01/02 02:39:36;;;;;;;3.87;1.00;;;5.00;35.10;;;;;;5041651;28;46162;-78
2024/01/02 02:42:02;;;;;;;2.70;0.90;;;5.10;35.20;;;;;;5022655;28;45931;-78
2024/01/02 02:44:27;;;;;;;3.30;0.90;;;5.10;35.30;;;;;;5040331;28;47224;-78
2024/01/02 02:46:53;;;;;;;3.53;0.80;;;5.10;35.10;;;;;;5039749;28;46737;-79
2024/01/02 02:49:19;;;;;;;1.43;0.70;;;5.10;34.70;;;;;;5024272;28;46421;-78
2024/01/02 02:51:44;;;;;;;1.57;0.90;;;5.20;34.40;;;;;;5039097;28;45974;-79
2024/01/02 02:54:10;;;;;;;1.37;0.73;;;5.20;34.10;;;;;;5040325;28;46400;-78
2024/01/02 02:56:35;;;;;;;5.23;1.00;;;5.20;33.90;;;;;;5041083;28;46506;-78
2024/01/02 02:59:01;;;;;;;1.63;0.83;;;5.20;33.80;;;;;;5025159;28;45966;-78
2024/01/02 03:01:26;;;;;;;2.77;1.10;;;5.30;33.70;;;;;;5045967;28;46704;-80
2024/01/02 03:03:52;;;;;;;2.20;1.10;;;5.30;33.60;;;;;;5040657;28;46653;-78
2024/01/02 03:06:18;;;;;;;7.20;0.70;;;5.30;33.30;;;;;;5043487;28;46707;-79
2024/01/02 03:08:43;;;;;;;3.77;0.80;;;5.40;33.20;;;;;;5042303;28;46368;-78
2024/01/02 03:11:09;;;;;;;2.20;0.80;;;5.40;33.20;;;;;;5043035;28;46630;-79
2024/01/02 03:13:34;;;;;;;15.07;1.17;;;5.40;32.90;;;;;;5041764;28;46447;-79
2024/01/02 03:16:00;;;;;;;1.57;0.80;;;5.40;32.70;;;;;;5041326;28;46713;-79
2024/01/02 03:18:26;;;;;;;3.43;0.83;;;5.50;32.80;;;;;;5042765;28;46495;-78
2024/01/02 03:20:51;;;;;;;2.07;0.70;;;5.50;32.60;;;;;;5023206;28;46483;-78
2024/01/02 03:23:17;;;;;;;2.40;1.00;;;5.50;32.30;;;;;;5024076;28;49291;-77
2024/01/02 03:25:42;;;;;;;1.70;0.90;;;5.50;32.30;;;;;;5039600;28;47018;-79
2024/01/02 03:28:08;;;;;;;4.23;1.20;;;5.50;32.30;;;;;;5040594;28;46400;-77
2024/01/02 03:30:34;;;;;;;1.43;0.70;;;5.60;32.30;;;;;;5040851;28;46513;-77
2024/01/02 03:32:59;;;;;;;2.10;0.80;;;5.60;31.80;;;;;;5021125;28;49120;-77
2024/01/02 03:35:26;;;;;;;3.27;1.00;;;5.60;31.60;;;;;;5022645;28;46388;-77
2024/01/02 03:37:51;;;;;;;1.77;0.77;;;5.70;31.60;;;;;;5039711;28;46455;-77
2024/01/02 03:40:17;;;;;;;2.33;0.87;;;5.70;31.30;;;;;;5022409;28;46623;-77
2024/01/02 03:42:42;;;;;;;1.40;0.67;;;5.70;31.00;;;;;;5039627;28;46766;-76
2024/01/02 03:45:08;;;;;;;3.67;1.27;;;5.80;30.50;;;;;;5040294;28;46522;-77
2024/01/02 03:47:34;;;;;;;1.10;0.60;;;5.80;30.40;;;;;;5040007;28;46419;-78
2024/01/02 03:50:00;;;;;;;1.70;1.10;;;5.80;30.70;;;;;;5040086;28;46415;-77
2024/01/02 03:52:26;;;;;;;1.60;0.80;;;5.80;30.20;;;;;;5020948;28;48051;-81
2024/01/02 03:54:51;;;;;;;1.50;0.60;;;5.90;30.00;;;;;;5038213;28;46607;-77
2024/01/02 03:57:17;;;;;;;1.53;0.60;;;5.90;29.90;;;;;;5036685;28;46560;-78
2024/01/02 03:59:43;;;;;;;2.17;0.70;;;5.90;29.90;;;;;;5042108;28;46406;-78
2024/01/02 04:02:08;;;;;;;6.00;0.80;;;5.90;29.70;;;;;;5039745;28;46499;-78
2024/01/02 04:04:36;;;;;;;2.43;0.77;;;5.90;29.70;;;;;;5036842;28;46823;-77
2024/01/02 04:07:02;;;;;;;1.37;0.80;;;6.00;29.70;;;;;;5040189;28;46482;-78
2024/01/02 04:09:28;;;;;;;1.53;0.73;;;6.00;29.60;;;;;;5038251;28;46374;-77
2024/01/02 04:11:53;;;;;;;2.60;0.80;;;6.00;29.60;;;;;;5038837;28;47285;-77
2024/01/02 04:14:19;;;;;;;1.90;0.70;;;6.10;29.60;;;;;;5038107;28;46496;-79
2024/01/02 04:16:44;;;;;;;1.60;0.70;;;6.10;29.50;;;;;;5023617;28;46924;-77
2024/01/02 04:19:10;;;;;;;1.50;0.77;;;6.10;29.50;;;;;;5041025;28;46642;-77
2024/01/02 04:21:35;;;;;;;2.90;1.00;;;6.20;29.30;;;;;;5040432;28;46900;-78
2024/01/02 04:24:01;;;;;;;1.50;1.00;;;6.20;29.20;;;;;;5039097;28;46431;-78
2024/01/02 04:26:27;;;;;;;2.10;0.67;;;6.20;29.10;;;;;;5041602;28;46524;-77
2024/01/02 04:28:52;;;;;;;1.50;0.60;;;6.20;28.90;;;;;;5012462;28;46434;-78
2024/01/02 04:31:18;;;;;;;2.00;0.80;;;6.20;29.00;;;;;;5037893;28;46579;-78
2024/01/02 04:33:43;;;;;;;2.13;0.83;;;6.20;28.80;;;;;;5041946;28;46505;-78
2024/01/02 04:36:09;;;;;;;2.53;0.70;;;6.20;28.90;;;;;;5042716;28;46479;-77
2024/01/02 04:38:35;;;;;;;2.67;0.80;;;6.20;29.00;;;;;;5041558;28;47465;-77
2024/01/02 04:41:02;;;;;;;1.63;0.77;;;6.10;28.70;;;;;;5030791;28;47419;-77
2024/01/02 04:43:28;;;;;;;1.93;0.77;;;6.10;28.60;;;;;;5019374;28;46443;-77
2024/01/02 04:45:54;;;;;;;1.43;0.80;;;6.10;28.60;;;;;;5038041;28;45974;-79
2024/01/02 04:48:20;;;;;;;3.67;1.23;;;6.10;28.30;;;;;;5044536;28;46489;-78
2024/01/02 04:50:47;;;;;;;1.60;0.67;;;6.20;28.30;;;;;;5022711;28;49213;-79
2024/01/02 04:53:13;;;;;;;2.90;0.93;;;6.00;27.90;;;;;;5040867;28;46598;-78
2024/01/02 04:55:38;;;;;;;3.33;1.00;;;6.10;27.90;;;;;;5013811;28;46415;-77
2024/01/02 04:58:04;;;;;;;3.30;1.20;;;6.00;27.90;;;;;;5018871;28;46569;-75
2024/01/02 05:00:30;;;;;;;1.40;0.80;;;6.00;27.40;;;;;;5040782;28;47258;-78
2024/01/02 05:02:57;;;;;;;1.70;0.83;;;5.90;27.30;;;;;;5040428;28;46020;-78
2024/01/02 05:05:23;;;;;;;1.47;0.70;;;5.90;27.00;;;;;;5040080;28;46404;-79
2024/01/02 05:07:49;;;;;;;1.73;0.93;;;5.90;27.10;;;;;;5035293;28;46449;-80
2024/01/02 05:10:15;;;;;;;5.17;0.80;;;5.90;26.70;;;;;;5049764;28;46025;-79
2024/01/02 05:12:41;;;;;;;1.50;0.70;;;5.90;26.40;;;;;;5049945;28;46419;-79
2024/01/02 05:15:07;;;;;;;3.00;0.80;;;5.90;26.60;;;;;;5028117;28;46952;-79
2024/01/02 05:17:33;;;;;;;2.10;0.90;;;5.90;26.20;;;;;;5040997;28;46588;-78
2024/01/02 05:19:58;;;;;;;2.60;0.70;;;6.00;26.20;;;;;;5024829;28;47854;-78
2024/01/02 05:22:24;;;;;;;2.00;0.97;;;6.20;26.10;;;;;;5041854;28;46506;-78
2024/01/02 05:24:49;;;;;;;1.30;0.80;;;6.10;25.90;;;;;;5040913;28;46480;-78
2024/01/02 05:27:15;;;;;;;2.70;1.00;;;6.10;25.60;;;;;;5041201;28;46373;-79
2024/01/02 05:29:42;;;;;;;1.87;0.70;;;6.10;25.50;;;;;;5042384;28;46440;-79
2024/01/02 05:32:07;;;;;;;1.47;0.70;;;6.10;25.30;;;;;;5041262;28;46475;-76
2024/01/02 05:34:33;;;;;;;6.93;0.90;;;6.10;25.20;;;;;;5040775;28;45811;-77
2024/01/02 05:36:59;;;;;;;1.50;0.80;;;6.10;25.10;;;;;;5041516;28;46437;-77
2024/01/02 05:39:24;;;;;;;1.53;0.80;;;6.10;25.00;;;;;;5022855;28;48359;-77
2024/01/02 05:41:50;;;;;;;1.40;0.80;;;6.10;24.60;;;;;;5040928;28;46367;-76
2024/01/02 05:44:15;;;;;;;1.57;0.87;;;6.10;24.50;;;;;;5021660;28;45995;-80
2024/01/02 05:46:41;;;;;;;2.10;0.80;;;6.10;24.30;;;;;;5039663;28;46568;-78
2024/01/02 05:49:06;;;;;;;1.10;0.60;;;6.10;24.30;;;;;;5039912;28;46571;-77
2024/01/02 05:51:32;;;;;;;1.43;0.70;;;6.10;25.30;;;;;;5023325;28;46516;-78
2024/01/02 05:53:57;;;;;;;1.10;0.60;;;6.10;24.30;;;;;;5039533;28;46638;-78
2024/01/02 05:56:23;;;;;;;1.20;0.60;;;6.20;24.50;;;;;;5039490;28;46407;-78
2024/01/02 05:58:49;;;;;;;1.20;0.70;;;6.20;24.50;;;;;;5040891;28;47093;-78
2024/01/02 06:01:15;;;;;;;1.20;0.60;;;6.20;24.50;;;;;;5041492;28;46555;-79
2024/01/02 06:03:40;;;;;;;1.53;0.70;;;6.30;24.80;;;;;;5037935;28;45876;-77
2024/01/02 06:06:07;;;;;;;1.00;0.60;;;6.20;25.10;;;;;;5040283;28;46505;-78
2024/01/02 06:08:32;;;;;;;1.53;0.70;;;6.10;25.30;;;;;;5039790;28;47540;-79
2024/01/02 06:10:59;;;;;;;2.00;0.63;;;6.10;25.50;;;;;;5042621;28;46591;-79
2024/01/02 06:13:25;;;;;;;1.47;0.77;;;6.00;25.70;;;;;;5042407;28;46710;-78
2024/01/02 06:15:50;;;;;;;1.10;0.60;;;6.00;26.00;;;;;;5022557;28;46623;-78
2024/01/02 06:18:16;;;;;;;1.37;0.80;;;5.90;26.20;;;;;;5041292;28;47188;-79
2024/01/02 06:20:41;;;;;;;1.30;0.70;;;5.90;26.40;;;;;;5040281;28;46948;-78
2024/01/02 06:23:07;;;;;;;2.23;0.70;;;5.80;26.60;;;;;;5043864;28;46435;-77
2024/01/02 06:25:32;;;;;;;3.37;0.80;;;5.90;26.80;;;;;;5045845;28;46571;-77
2024/01/02 06:27:58;;;;;;;1.23;0.63;;;5.80;26.90;;;;;;5044934;28;46552;-76
2024/01/02 06:30:24;;;;;;;1.13;0.70;;;5.90;27.10;;;;;;5041648;28;46671;-78
2024/01/02 06:32:50;;;;;;;2.50;0.73;;;5.80;27.10;;;;;;5026742;28;46490;-76
2024/01/02 06:35:15;;;;;;;3.83;0.83;;;5.90;27.30;;;;;;5042602;28;45926;-76
2024/01/02 06:37:41;;;;;;;0.90;0.60;;;6.00;27.20;;;;;;5045076;28;46591;-78
2024/01/02 06:40:08;;;;;;;1.60;0.70;;;6.10;27.40;;;;;;5026585;28;46781;-78
2024/01/02 06:42:34;;;;;;;1.97;0.90;;;5.90;27.30;;;;;;5044162;28;47392;-77
2024/01/02 06:45:00;;;;;;;1.13;0.60;;;6.00;27.30;;;;;;5027694;28;46568;-78
2024/01/02 06:47:27;;;;;;;2.60;0.70;;;6.00;27.30;;;;;;5045681;28;46095;-79
2024/01/02 06:49:52;;;;;;;1.10;0.60;;;6.20;27.40;;;;;;5044827;28;46423;-79
2024/01/02 06:52:18;;;;;;;1.37;0.70;;;6.10;27.40;;;;;;5043618;28;46449;-78
2024/01/02 06:54:44;;;;;;;2.27;0.70;;;6.20;27.50;;;;;;5028923;28;46413;-78
2024/01/02 06:57:10;;;;;;;2.33;1.10;;;6.20;28.30;;;;;;5024734;28;47664;-79
2024/01/02 06:59:36;;;;;;;2.33;0.80;;;6.20;27.30;;;;;;5046525;28;46536;-79
2024/01/02 07:02:02;;;;;;;5.40;3.50;;;6.20;27.30;;;;;;5048290;28;46772;-78
2024/01/02 07:04:28;;;;;;;3.20;1.30;;;6.30;27.40;;;;;;5045952;28;46608;-79
2024/01/02 07:06:54;;;;;;;5.90;1.40;;;6.30;27.40;;;;;;5048703;28;46629;-78
2024/01/02 07:09:20;;;;;;;2.20;1.00;;;6.50;28.60;;;;;;5043203;28;46590;-79
2024/01/02 07:11:45;;;;;;;1.30;0.90;;;6.40;27.50;;;;;;5024691;28;46503;-78
2024/01/02 07:14:11;;;;;;;5.10;2.97;;;6.50;27.50;;;;;;5025746;28;45947;-78
2024/01/02 07:16:37;;;;;;;2.80;1.20;;;6.60;27.50;;;;;;5042508;28;46451;-78
2024/01/02 07:19:03;;;;;;;1.00;0.60;;;6.70;27.50;;;;;;5044059;28;46512;-78
2024/01/02 07:21:29;;;;;;;1.00;0.60;;;6.80;27.40;;;;;;5041208;28;46939;-78
2024/01/02 07:23:54;;;;;;;1.50;0.80;;;6.80;27.30;;;;;;5030563;28;46986;-78
2024/01/02 07:26:20;;;;;;;1.50;0.80;;;6.90;27.30;;;;;;5047816;28;46416;-78
2024/01/02 07:28:45;;;;;;;1.20;0.60;;;7.10;27.20;;;;;;5042347;28;45826;-78
2024/01/02 07:31:11;;;;;;;1.13;0.60;;;7.10;27.00;;;;;;5045480;28;46767;-77
2024/01/02 07:33:37;;;;;;;2.10;0.80;;;7.20;27.00;;;;;;5041907;28;46447;-78
2024/01/02 07:36:03;;;;;;;1.93;1.20;;;7.30;27.00;;;;;;5043186;28;46839;-79
2024/01/02 07:38:30;;;;;;;1.00;0.60;;;7.40;26.90;;;;;;5043494;28;46523;-79
2024/01/02 07:40:55;;;;;;;1.13;0.53;;;7.50;26.80;;;;;;5044156;28;46418;-79
2024/01/02 07:43:22;;;;;;;1.00;0.60;;;7.60;26.70;;;;;;5025072;28;46616;-78
2024/01/02 07:45:48;;;;;;;4.37;2.50;;;7.60;26.60;;;;;;5044146;28;46185;-80
2024/01/02 07:48:14;;;;;;;2.37;1.40;;;7.70;26.60;;;;;;5040278;28;46100;-77
2024/01/02 07:50:39;;;;;;;1.90;1.10;;;7.80;27.40;;;;;;5042169;28;46775;-79
2024/01/02 07:53:05;;;;;;;1.10;0.60;;;7.80;26.30;;;;;;5043074;28;46558;-78
2024/01/02 07:55:31;;;;;;;2.13;1.00;;;7.90;26.40;;;;;;5039849;28;46962;-78
2024/01/02 07:57:57;;;;;;;1.80;0.80;;;7.90;26.20;;;;;;5022566;28;46808;-78
2024/01/02 08:00:23;;;;;;;1.60;0.70;;;7.90;26.20;;;;;;5053316;28;46762;-79
2024/01/02 08:02:49;;;;;;;2.63;1.10;;;8.10;26.20;;;;;;5044924;28;46414;-78
2024/01/02 08:05:15;;;;;;;1.70;0.63;;;8.00;26.10;;;;;;5041710;28;46783;-78
2024/01/02 08:07:40;;;;;;;1.10;0.70;;;8.00;26.00;;;;;;5041524;28;46436;-78
2024/01/02 08:10:07;;;;;;;1.27;0.63;;;8.00;25.70;;;;;;5024093;28;46953;-78
2024/01/02 08:12:33;;;;;;;1.20;0.60;;;8.00;25.60;;;;;;5040305;28;46502;-78
2024/01/02 08:14:59;;;;;;;1.30;0.60;;;8.00;25.60;;;;;;5042753;28;47671;-78
2024/01/02 08:17:24;;;;;;;1.20;0.60;;;8.00;25.50;;;;;;5023958;28;46723;-78
2024/01/02 08:19:53;;;;;;;1.37;0.60;;;8.00;25.50;;;;;;5041504;28;46471;-78
2024/01/02 08:22:19;;;;;;;1.57;0.60;;;8.00;25.50;;;;;;5043011;28;46455;-78
2024/01/02 08:24:45;;;;;;;1.10;0.60;;;8.00;25.50;;;;;;5038202;28;46416;-78
2024/01/02 08:27:10;;;;;;;1.20;0.70;;;8.00;25.60;;;;;;5040760;28;46766;-78
2024/01/02 08:29:36;;;;;;;1.97;1.20;;;7.90;25.50;;;;;;5040706;28;46547;-79
2024/01/02 08:32:02;;;;;;;1.20;0.60;;;8.00;25.60;;;;;;5042050;28;46770;-77
2024/01/02 08:34:28;;;;;;;1.60;0.67;;;7.90;25.50;;;;;;5041617;28;46137;-77
2024/01/02 08:36:54;;;;;;;2.03;0.77;;;8.00;25.60;;;;;;5023863;28;46740;-77
2024/01/02 08:39:19;;;;;;;1.67;0.60;;;8.00;25.50;;;;;;5043048;28;45871;-80
2024/01/02 08:41:45;;;;;;;1.10;0.63;;;7.90;25.50;;;;;;5043513;28;46479;-80
2024/01/02 08:44:11;;;;;;;1.10;0.70;;;8.00;25.50;;;;;;5041172;28;46489;-79
2024/01/02 08:46:36;;;;;;;1.10;0.60;;;8.00;25.60;;;;;;5045221;28;46779;-78
2024/01/02 08:49:03;;;;;;;1.33;0.70;;;7.90;25.50;;;;;;5025700;28;45904;-79
2024/01/02 08:51:28;;;;;;;5.10;0.80;;;8.00;26.50;;;;;;5030119;28;46455;-78
2024/01/02 08:53:54;;;;;;;1.30;0.77;;;8.00;25.60;;;;;;5025496;28;48801;-78
2024/01/02 08:56:21;;;;;;;1.63;0.90;;;8.00;25.50;;;;;;5046783;28;46189;-77
2024/01/02 08:58:46;;;;;;;2.97;1.43;;;8.00;25.50;;;;;;5047193;28;46579;-79
2024/01/02 09:01:12;;;;;;;1.40;0.83;;;8.00;25.50;;;;;;5046931;28;45904;-77
2024/01/02 09:03:38;;;;;;;1.40;0.70;;;8.00;26.50;;;;;;5040137;28;47563;-77
2024/01/02 09:06:04;;;;;;;1.60;0.80;;;8.00;25.50;;;;;;5041211;28;46947;-77
2024/01/02 09:08:30;;;;;;;1.80;0.70;;;8.00;25.50;;;;;;5024481;28;46558;-78
2024/01/02 09:10:58;;;;;;;3.17;1.57;;;8.00;25.70;;;;;;5041826;28;46567;-78
2024/01/02 09:13:24;;;;;;;2.03;0.80;;;8.10;27.00;;;;;;5039994;28;47159;-76
2024/01/02 09:15:49;;;;;;;2.07;0.90;;;8.10;26.30;;;;;;5041463;28;47490;-78
2024/01/02 09:18:15;;;;;;;7.37;3.03;;;8.10;26.30;;;;;;5039937;28;46447;-77
2024/01/02 09:20:41;;;;;;;85.43;31.97;;;8.10;26.40;;;;;;5036132;28;46721;-77
2024/01/02 09:23:07;;;;;;;9.13;3.23;;;8.20;26.50;;;;;;5039676;28;47275;-77
2024/01/02 09:25:38;;;;;;;1.20;0.80;;;8.20;26.40;;;;;;5038300;28;46826;-78
2024/01/02 09:28:06;;;;;;;1.83;0.80;;;8.20;26.60;;;;;;5040474;28;46776;-77
2024/01/02 09:30:32;;;;;;;1.77;0.80;;;8.30;26.50;;;;;;5021438;28;46404;-77
2024/01/02 09:32:58;;;;;;;1.97;1.00;;;8.30;26.60;;;;;;5039394;28;47102;-76
2024/01/02 09:35:24;;;;;;;1.50;0.80;;;8.40;26.80;;;;;;5039248;28;47019;-78
2024/01/02 09:37:49;;;;;;;3.60;0.80;;;8.30;26.80;;;;;;5046876;28;46217;-78
2024/01/02 09:40:33;;;;;;;1.50;0.83;;;8.40;26.90;;;;;;5049121;28;46052;-77
2024/01/02 09:43:35;;;;;;;1.87;0.90;;;8.40;27.10;;;;;;5041468;28;46660;-77
2024/01/02 09:46:21;;;;;;;1.90;0.90;;;8.30;27.20;;;;;;5039895;28;46379;-78
2024/01/02 09:49:05;;;;;;;2.73;1.00;;;8.30;27.20;;;;;;5040077;28;46434;-77
2024/01/02 09:51:51;;;;;;;1.87;0.80;;;8.30;27.30;;;;;;5023924;28;46578;-79
2024/01/02 09:54:25;;;;;;;2.00;0.70;;;8.30;27.40;;;;;;5043617;28;46974;-78
2024/01/02 09:57:15;;;;;;;1.43;0.90;;;8.30;27.60;;;;;;5041679;28;46296;-77
2024/01/02 10:00:03;;;;;;;2.67;1.00;;;8.20;27.80;;;;;;5044253;28;46328;-80
2024/01/02 10:02:53;;;;;;;1.57;0.83;;;8.20;28.70;;;;;;5046156;28;46401;-77
2024/01/02 10:05:46;;;;;;;1.60;0.90;;;8.20;28.00;;;;;;5026249;28;48209;-77
2024/01/02 10:08:40;;;;;;;5.63;0.80;;;8.20;27.90;;;;;;5045259;28;45901;-80
2024/01/02 10:11:21;;;;;;;3.13;1.00;;;8.30;28.70;;;;;;5028857;28;46381;-78
2024/01/02 10:14:29;;;;;;;3.77;1.07;;;8.30;27.70;;;;;;5019779;28;47048;-78
2024/01/02 10:17:39;;;;;;;1.53;0.70;;;8.40;27.50;;;;;;5043347;28;46440;-77
2024/01/02 10:20:30;;;;;;;1.33;0.73;;;8.40;27.40;;;;;;5035539;28;46309;-78
2024/01/02 10:23:40;;;;;;;2.13;0.90;;;8.40;27.40;;;;;;5046784;28;46287;-79
2024/01/02 10:26:08;;;;;;;3.13;0.90;;;8.40;27.50;;;;;;5047003;28;46486;-79
2024/01/02 10:28:36;;;;;;;1.10;0.70;;;8.40;27.50;;;;;;5046865;28;46919;-79
2024/01/02 10:31:25;;;;;;;2.60;0.80;;;8.50;27.50;;;;;;5023138;28;46804;-80
2024/01/02 10:34:15;;;;;;;1.20;0.70;;;8.50;27.50;;;;;;5043233;28;46420;-77
2024/01/02 10:36:49;;;;;;;2.07;1.10;;;8.50;27.70;;;;;;5034581;28;46492;-80
2024/01/02 10:39:26;;;;;;;1.63;0.90;;;8.50;27.70;;;;;;5024005;28;49549;-78
2024/01/02 10:41:54;;;;;;;1.23;0.70;;;8.50;27.70;;;;;;5046580;28;45848;-79
2024/01/02 10:44:47;;;;;;;1.63;0.83;;;8.60;27.90;;;;;;5051468;28;46727;-78
2024/01/02 10:47:37;;;;;;;1.70;0.90;;;8.70;27.80;;;;;;5051101;28;46487;-80
2024/01/02 10:50:04;;;;;;;1.30;0.77;;;8.70;27.80;;;;;;5015319;28;46457;-80
2024/01/02 10:52:43;;;;;;;1.30;0.70;;;8.70;27.80;;;;;;5049349;28;45860;-79
2024/01/02 10:55:38;;;;;;;1.93;0.90;;;8.70;27.90;;;;;;5036455;28;46411;-79
2024/01/02 10:58:17;;;;;;;1.90;0.80;;;8.70;28.00;;;;;;5038078;28;46481;-79
2024/01/02 11:01:09;;;;;;;1.50;0.77;;;8.70;28.10;;;;;;5039096;28;47256;-80
2024/01/02 11:03:47;;;;;;;1.50;0.80;;;8.70;28.40;;;;;;5013505;28;47124;-79
2024/01/02 11:06:21;;;;;;;1.30;0.70;;;8.70;28.40;;;;;;5037993;28;46502;-79
2024/01/02 11:09:03;;;;;;;3.10;0.70;;;8.80;28.60;;;;;;5037039;28;46695;-83
2024/01/02 11:11:33;;;;;;;2.27;1.00;;;8.80;28.60;;;;;;5037930;28;47493;-79
2024/01/02 11:14:00;;;;;;;2.07;0.80;;;8.80;28.70;;;;;;5036283;28;46590;-79
2024/01/02 11:16:28;;;;;;;2.10;0.80;;;8.90;28.80;;;;;;5039091;28;46475;-78
2024/01/02 11:18:59;;;;;;;1.50;0.80;;;8.90;28.90;;;;;;5039276;28;46560;-79
2024/01/02 11:21:40;;;;;;;2.00;0.70;;;8.90;29.00;;;;;;5037659;28;47239;-79
2024/01/02 11:24:07;;;;;;;1.40;0.80;;;8.90;29.20;;;;;;5033844;28;46457;-79
2024/01/02 11:26:40;;;;;;;1.80;0.80;;;9.00;29.20;;;;;;5018526;28;46500;-77
2024/01/02 11:29:28;;;;;;;3.90;0.90;;;9.00;29.30;;;;;;5037296;28;47026;-82
2024/01/02 11:31:55;;;;;;;8.40;0.80;;;9.00;29.30;;;;;;5036159;28;46767;-82
2024/01/02 11:34:58;;;;;;;1.40;0.80;;;9.10;29.30;;;;;;5035359;28;47440;-79
2024/01/02 11:37:51;;;;;;;1.77;0.90;;;9.20;29.30;;;;;;5038146;28;46657;-79
2024/01/02 11:40:41;;;;;;;2.30;0.70;;;9.40;29.00;;;;;;5037554;28;46497;-79
2024/01/02 11:43:14;;;;;;;1.77;0.80;;;9.50;28.80;;;;;;5033288;28;47023;-79
2024/01/02 11:45:42;;;;;;;2.70;1.13;;;9.60;28.70;;;;;;5035774;28;46495;-80
2024/01/02 11:48:26;;;;;;;1.33;0.77;;;9.70;28.70;;;;;;5016216;28;46511;-79
2024/01/02 11:50:57;;;;;;;1.60;0.80;;;9.80;28.60;;;;;;5037138;28;47147;-78
2024/01/02 11:53:50;;;;;;;1.37;0.70;;;9.80;28.60;;;;;;5039125;28;47201;-79
2024/01/02 11:56:18;;;;;;;2.50;1.10;;;9.80;28.60;;;;;;5038758;28;46964;-80
2024/01/02 11:59:25;;;;;;;1.93;0.70;;;9.80;28.60;;;;;;5033586;28;46569;-81
2024/01/02 12:02:09;;;;;;;1.50;0.87;;;9.90;28.50;;;;;;5033685;28;46485;-78
2024/01/02 12:04:54;;;;;;;1.43;0.70;;;10.00;27.70;;;;;;5036362;28;46695;-76
2024/01/02 12:07:25;;;;;;;1.87;1.00;;;10.00;27.60;;;;;;5037112;28;46630;-80
2024/01/02 12:09:52;;;;;;;2.40;0.93;;;10.10;27.60;;;;;;5040777;28;46273;-79
2024/01/02 12:12:36;;;;;;;1.30;0.60;;;10.10;27.50;;;;;;5019653;28;46450;-78
2024/01/02 12:15:10;;;;;;;1.50;0.80;;;10.10;27.60;;;;;;5040158;28;46969;-77
2024/01/02 12:18:00;;;;;;;1.37;0.60;;;10.10;27.60;;;;;;5043674;28;46676;-79
2024/01/02 12:20:30;;;;;;;1.87;0.90;;;10.20;27.30;;;;;;5038074;28;46598;-80
2024/01/02 12:22:58;;;;;;;1.40;0.70;;;10.20;27.40;;;;;;5036115;28;46447;-82
2024/01/02 12:25:23;;;;;;;1.63;0.80;;;10.20;27.40;;;;;;5036919;28;46451;-79
2024/01/02 12:27:53;;;;;;;1.50;0.70;;;10.20;27.40;;;;;;5047597;28;46387;-79
2024/01/02 12:30:29;;;;;;;2.37;0.70;;;10.20;27.30;;;;;;5035494;28;46380;-78
2024/01/02 12:33:24;;;;;;;2.97;0.70;;;10.20;27.20;;;;;;5029717;28;46426;-81
2024/01/02 12:36:06;;;;;;;2.00;0.80;;;10.30;27.10;;;;;;5032608;28;46646;-78
2024/01/02 12:38:50;;;;;;;1.30;0.60;;;10.30;27.10;;;;;;5032150;28;46555;-80
2024/01/02 12:41:29;;;;;;;1.70;0.70;;;10.30;26.50;;;;;;5032289;28;46449;-81
2024/01/02 12:43:58;;;;;;;1.30;0.67;;;10.30;26.50;;;;;;5029518;28;46486;-77
2024/01/02 12:46:31;;;;;;;3.40;0.70;;;10.40;26.40;;;;;;5032368;28;46951;-81
2024/01/02 12:49:01;;;;;;;1.70;0.70;;;10.40;26.40;;;;;;5032492;28;46705;-77
2024/01/02 12:51:31;;;;;;;1.40;0.70;;;10.50;26.50;;;;;;5030633;28;46362;-79
2024/01/02 12:54:01;;;;;;;1.97;0.70;;;10.50;26.50;;;;;;5031143;28;46397;-78
2024/01/02 12:56:32;;;;;;;1.50;0.70;;;10.50;26.50;;;;;;5033185;28;46794;-81
2024/01/02 12:59:04;;;;;;;1.80;0.80;;;10.40;26.40;;;;;;5031477;28;46683;-78
2024/01/02 13:01:30;;;;;;;1.37;0.70;;;10.40;26.40;;;;;;5016972;28;46515;-79
2024/01/02 13:03:56;;;;;;;1.30;0.70;;;10.40;26.40;;;;;;5033224;28;46600;-80
2024/01/02 13:06:22;;;;;;;1.50;0.80;;;10.50;26.50;;;;;;5012329;28;48214;-81